Alford, Florida
Current Conditions -  °F | °C
As of 11:53 PM on Wednesday 22 Oct 2014 (Local Time) from KMAI Reporting Station
Light Rain Light Rain  
Wind Chill: 51°   Ceiling: Unl
Heat Index: 51°   Visibility: 10mi
Dew Point: 48°   Wind: 0mph
Humidity: 89%   Direction: NA
Pressure: 30.07"   Gusts: NA
Location:  30.69°N, 85.39°W
Report Text: KMAI 230453Z AUTO 00000KT 10SM -RA CLR 11/09 A3007 RMK AO2 SLP181 P0000 T01060089 $
Loading
Personal Weather Stations






























Interactive Weather Map
Tropical Storm Tracking
New forecast layout! Learn more

10-Day Weather Forecast

Advertisements
Track Severe Weather on mobile